»·PEaware :: N350KT KSEE-KLAS

N350KT :: KSEE-KLAS

FLIGHT INFORMATION

Flight Status: Arrived
Operator: Privately registered:
United States
More flights under this callsign
Pilot: Aundrey S. (17120)
Aircraft: Unknown
(HA4T)
More flights by this aircraft type
Origin: KSEE Gillespie
United States
Destination: KLAS Harry Reid Intl
United States
More flights between these airports :: More routes between these airports
Route: PADRZ2 CHKNN SEBBY YELAH MISEN KEPEC6
File this flight plan on PilotEdge
Remarks:
Altitude:
(Current/Filed)
29,000ft
Speed:
(Current/Filed)
450kts
Departed: 28-Dec-20 08:24 PM
Arrived: 28-Dec-20 09:27 PM
Distance/Time
Traveled:
215nm/1:03
Distance/Time
To Go:
Arrived

Flight Plot

Page will automatically refresh every two minutes.

Flight plan parsing failed; only flown route is shown


Map Options




Map Legend


Flown Route
Filed Route
Departure Airport
Arrival Airport
Navaid (VOR, NDB)
Fix

Horizontal Profiles

Position Reports

Time Latitude Longitude Heading Altitude Ground
Speed
28-Dec-20 19:46 32.824795 -116.969704 14 380ft 0kts
28-Dec-20 19:47 32.824795 -116.969704 14 380ft 0kts
28-Dec-20 19:48 32.824795 -116.969704 14 380ft 0kts
28-Dec-20 19:49 32.824795 -116.969704 14 380ft 0kts
28-Dec-20 19:50 32.824795 -116.969704 14 380ft 0kts
28-Dec-20 19:51 32.824795 -116.969704 14 380ft 0kts
28-Dec-20 19:52 32.824795 -116.969704 14 380ft 0kts
28-Dec-20 19:53 32.824795 -116.969704 14 380ft 0kts
28-Dec-20 19:54 32.824795 -116.969704 14 380ft 0kts
28-Dec-20 19:55 32.824795 -116.969704 14 380ft 0kts
28-Dec-20 19:56 32.824795 -116.969704 14 380ft 0kts
28-Dec-20 19:57 32.824795 -116.969704 14 380ft 0kts
28-Dec-20 19:58 32.824795 -116.969704 14 380ft 0kts
28-Dec-20 19:59 32.824795 -116.969704 14 380ft 0kts
28-Dec-20 20:00 32.824795 -116.969704 14 380ft 0kts
28-Dec-20 20:01 32.824795 -116.969704 14 380ft 0kts
28-Dec-20 20:02 32.824795 -116.969704 14 380ft 0kts
28-Dec-20 20:03 32.824795 -116.969704 14 380ft 0kts
28-Dec-20 20:04 32.824795 -116.969704 14 380ft 0kts
28-Dec-20 20:05 32.824795 -116.969704 14 380ft 0kts
28-Dec-20 20:06 32.824795 -116.969704 14 380ft 0kts
28-Dec-20 20:07 32.824795 -116.969704 14 380ft 0kts
28-Dec-20 20:08 32.824795 -116.969704 14 380ft 0kts
28-Dec-20 20:09 32.824795 -116.969704 14 380ft 0kts
28-Dec-20 20:11 32.824795 -116.969704 14 380ft 0kts
28-Dec-20 20:11 32.824795 -116.969704 14 380ft 0kts
28-Dec-20 20:12 32.824795 -116.969704 14 380ft 0kts
28-Dec-20 20:13 32.824795 -116.969704 14 380ft 0kts
28-Dec-20 20:14 32.824795 -116.969704 14 380ft 0kts
28-Dec-20 20:15 32.824795 -116.969704 14 380ft 0kts
28-Dec-20 20:16 32.824795 -116.969704 14 380ft 0kts
28-Dec-20 20:17 32.824795 -116.969704 14 380ft 0kts
28-Dec-20 20:18 32.824796 -116.969704 14 380ft 0kts
28-Dec-20 20:19 32.825918 -116.971463 281 375ft 15kts
28-Dec-20 20:20 32.826844 -116.976585 281 366ft 21kts
28-Dec-20 20:21 32.827854 -116.981460 327 358ft 9kts
28-Dec-20 20:22 32.828909 -116.981308 12 358ft 0kts
28-Dec-20 20:23 32.829080 -116.979137 102 362ft 50kts
28-Dec-20 20:24 32.810597 -116.936958 169 2509ft 191kts
28-Dec-20 20:25 32.739833 -116.926362 180 2985ft 286kts
28-Dec-20 20:26 32.717851 -116.988866 281 5373ft 252kts
28-Dec-20 20:27 32.739041 -117.069226 291 7761ft 260kts
28-Dec-20 20:28 32.768108 -117.149000 291 10143ft 265kts
28-Dec-20 20:29 32.798881 -117.233607 291 11546ft 311kts
28-Dec-20 20:30 32.832905 -117.327165 291 14094ft 312kts
28-Dec-20 20:31 32.868162 -117.422053 291 16092ft 318kts
28-Dec-20 20:32 32.904759 -117.519166 291 17790ft 324kts
28-Dec-20 20:33 32.942242 -117.617216 291 19417ft 327kts
28-Dec-20 20:34 32.981253 -117.716070 291 20791ft 331kts
28-Dec-20 20:35 33.021311 -117.815421 291 22063ft 334kts
28-Dec-20 20:36 33.062510 -117.915760 291 23072ft 338kts
28-Dec-20 20:37 33.144309 -117.965911 9 23799ft 415kts
28-Dec-20 20:38 33.232065 -117.869573 18 24507ft 426kts
28-Dec-20 20:39 33.337585 -117.805110 26 25258ft 435kts
28-Dec-20 20:40 33.439669 -117.726094 26 25921ft 439kts
28-Dec-20 20:41 33.542736 -117.645929 27 27079ft 446kts
28-Dec-20 20:42 33.648441 -117.563481 26 28759ft 460kts
28-Dec-20 20:43 33.757721 -117.478026 26 29036ft 475kts
28-Dec-20 20:44 33.867167 -117.392134 26 29025ft 464kts
28-Dec-20 20:45 33.975784 -117.306643 27 29013ft 467kts
28-Dec-20 20:46 34.083540 -117.221580 28 29016ft 460kts
28-Dec-20 20:47 34.190550 -117.136813 28 28780ft 459kts
28-Dec-20 20:48 34.296382 -117.052736 28 28314ft 455kts
28-Dec-20 20:49 34.401755 -116.968767 29 27853ft 451kts
28-Dec-20 20:50 34.505917 -116.885512 29 27399ft 447kts
28-Dec-20 20:51 34.608871 -116.802964 29 26953ft 442kts
28-Dec-20 20:52 34.710666 -116.721110 29 26510ft 436kts
28-Dec-20 20:53 34.811184 -116.640047 30 26072ft 430kts
28-Dec-20 20:54 34.910108 -116.560025 30 25634ft 424kts
28-Dec-20 20:55 35.007236 -116.481220 30 25197ft 417kts
28-Dec-20 20:56 35.102919 -116.403257 31 23953ft 423kts
28-Dec-20 20:57 35.184379 -116.301387 44 12957ft 340kts
28-Dec-20 20:58 35.251219 -116.217297 44 12990ft 345kts
28-Dec-20 20:59 35.318183 -116.133058 44 12990ft 344kts
28-Dec-20 21:00 35.384907 -116.048909 44 12990ft 344kts
28-Dec-20 21:01 35.451859 -115.964274 44 12991ft 345kts
28-Dec-20 21:02 35.518647 -115.879629 44 12992ft 346kts
28-Dec-20 21:03 35.581843 -115.799299 43 12998ft 309kts
28-Dec-20 21:04 35.641855 -115.722894 43 12992ft 310kts
28-Dec-20 21:05 35.701851 -115.646305 43 12990ft 310kts
28-Dec-20 21:07 35.765823 -115.577850 7 12980ft 302kts
28-Dec-20 21:08 35.849072 -115.570496 359 12995ft 300kts
28-Dec-20 21:09 35.932036 -115.565733 359 12975ft 299kts
28-Dec-20 21:10 35.987681 -115.508066 64 12962ft 288kts
28-Dec-20 21:11 36.017950 -115.416507 66 11695ft 283kts
28-Dec-20 21:12 36.027209 -115.323114 96 9903ft 277kts
28-Dec-20 21:13 36.020736 -115.232510 96 8952ft 247kts
28-Dec-20 21:14 36.014775 -115.147182 96 8284ft 246kts
28-Dec-20 21:15 36.009247 -115.063448 95 7982ft 246kts
28-Dec-20 21:16 36.004705 -114.979236 94 7991ft 245kts
28-Dec-20 21:17 36.000982 -114.895110 94 7988ft 245kts
28-Dec-20 21:18 36.014488 -114.818903 34 7826ft 234kts
28-Dec-20 21:19 36.071212 -114.824091 307 7623ft 190kts
28-Dec-20 21:19 36.072569 -114.872997 264 7549ft 173kts
28-Dec-20 21:21 36.079321 -114.951523 286 6456ft 199kts
28-Dec-20 21:22 36.102882 -115.014564 293 5680ft 204kts
28-Dec-20 21:23 36.127944 -115.076057 296 4333ft 179kts
28-Dec-20 21:23 36.142798 -115.115927 279 3288ft 144kts
28-Dec-20 21:25 36.112106 -115.149378 201 2406ft 136kts
28-Dec-20 21:26 36.083801 -115.165532 205 2149ft 54kts
28-Dec-20 21:26 36.082358 -115.167257 294 2159ft 0kts
28-Dec-20 21:27 36.082358 -115.167257 294 2159ft 0kts
28-Dec-20 21:28 36.081635 -115.169179 220 2166ft 8kts
28-Dec-20 21:29 36.081081 -115.171998 176 2173ft 9kts

Navigation Log

Ident Type
Flight plan parsing failed, navigation log unavailable